sensor_id;sensor_type;location;lat;lon;timestamp;P1;durP1;ratioP1;P2;durP2;ratioP2
20040;SDS011;10181;48.072;9.884;2023-07-13T00:02:05;11.13;;;8.87;;
20040;SDS011;10181;48.072;9.884;2023-07-13T00:04:31;17.27;;;10.27;;
20040;SDS011;10181;48.072;9.884;2023-07-13T00:06:57;18.40;;;6.57;;
20040;SDS011;10181;48.072;9.884;2023-07-13T00:09:22;6.20;;;5.70;;
20040;SDS011;10181;48.072;9.884;2023-07-13T00:11:52;23.30;;;9.00;;
20040;SDS011;10181;48.072;9.884;2023-07-13T00:14:19;18.83;;;6.87;;
20040;SDS011;10181;48.072;9.884;2023-07-13T00:16:45;8.00;;;7.33;;
20040;SDS011;10181;48.072;9.884;2023-07-13T00:19:11;12.50;;;7.47;;
20040;SDS011;10181;48.072;9.884;2023-07-13T00:21:38;16.53;;;7.43;;
20040;SDS011;10181;48.072;9.884;2023-07-13T00:24:05;23.10;;;10.13;;
20040;SDS011;10181;48.072;9.884;2023-07-13T00:26:32;16.30;;;6.63;;
20040;SDS011;10181;48.072;9.884;2023-07-13T00:28:58;12.53;;;6.77;;
20040;SDS011;10181;48.072;9.884;2023-07-13T00:31:24;12.33;;;7.20;;
20040;SDS011;10181;48.072;9.884;2023-07-13T00:33:49;18.77;;;7.27;;
20040;SDS011;10181;48.072;9.884;2023-07-13T00:36:15;15.73;;;8.40;;
20040;SDS011;10181;48.072;9.884;2023-07-13T00:38:41;15.20;;;7.23;;
20040;SDS011;10181;48.072;9.884;2023-07-13T00:41:07;16.63;;;7.03;;
20040;SDS011;10181;48.072;9.884;2023-07-13T00:43:33;22.37;;;9.17;;
20040;SDS011;10181;48.072;9.884;2023-07-13T00:48:29;27.47;;;12.33;;
20040;SDS011;10181;48.072;9.884;2023-07-13T00:50:58;17.93;;;6.83;;
20040;SDS011;10181;48.072;9.884;2023-07-13T00:53:26;23.87;;;10.13;;
20040;SDS011;10181;48.072;9.884;2023-07-13T00:55:53;16.67;;;6.70;;
20040;SDS011;10181;48.072;9.884;2023-07-13T00:58:21;4.67;;;4.13;;
20040;SDS011;10181;48.072;9.884;2023-07-13T01:00:52;4.87;;;4.57;;
20040;SDS011;10181;48.072;9.884;2023-07-13T01:03:18;17.23;;;9.33;;
20040;SDS011;10181;48.072;9.884;2023-07-13T01:05:44;20.93;;;8.30;;
20040;SDS011;10181;48.072;9.884;2023-07-13T01:08:14;6.90;;;6.40;;
20040;SDS011;10181;48.072;9.884;2023-07-13T01:10:40;17.40;;;6.67;;
20040;SDS011;10181;48.072;9.884;2023-07-13T01:13:07;4.40;;;4.10;;
20040;SDS011;10181;48.072;9.884;2023-07-13T01:18:11;24.53;;;10.87;;
20040;SDS011;10181;48.072;9.884;2023-07-13T01:20:50;32.73;;;10.57;;
20040;SDS011;10181;48.072;9.884;2023-07-13T01:23:23;26.03;;;10.93;;
20040;SDS011;10181;48.072;9.884;2023-07-13T01:25:50;28.23;;;11.50;;
20040;SDS011;10181;48.072;9.884;2023-07-13T01:28:17;24.77;;;8.97;;
20040;SDS011;10181;48.072;9.884;2023-07-13T01:30:43;29.37;;;9.63;;
20040;SDS011;10181;48.072;9.884;2023-07-13T01:33:11;11.23;;;7.63;;
20040;SDS011;10181;48.072;9.884;2023-07-13T01:35:38;30.70;;;12.37;;
20040;SDS011;10181;48.072;9.884;2023-07-13T01:38:04;29.17;;;10.93;;
20040;SDS011;10181;48.072;9.884;2023-07-13T01:40:30;28.50;;;9.10;;
20040;SDS011;10181;48.072;9.884;2023-07-13T01:42:57;27.30;;;8.87;;
20040;SDS011;10181;48.072;9.884;2023-07-13T01:45:23;9.77;;;6.27;;
20040;SDS011;10181;48.072;9.884;2023-07-13T01:47:49;26.87;;;9.77;;
20040;SDS011;10181;48.072;9.884;2023-07-13T01:50:14;27.37;;;9.43;;
20040;SDS011;10181;48.072;9.884;2023-07-13T01:52:40;28.43;;;9.50;;
20040;SDS011;10181;48.072;9.884;2023-07-13T01:55:06;29.23;;;11.27;;
20040;SDS011;10181;48.072;9.884;2023-07-13T01:57:32;27.33;;;10.20;;
20040;SDS011;10181;48.072;9.884;2023-07-13T01:59:58;26.00;;;8.83;;
20040;SDS011;10181;48.072;9.884;2023-07-13T02:02:23;8.43;;;7.30;;
20040;SDS011;10181;48.072;9.884;2023-07-13T02:04:49;26.97;;;9.20;;
20040;SDS011;10181;48.072;9.884;2023-07-13T02:07:15;30.23;;;9.97;;
20040;SDS011;10181;48.072;9.884;2023-07-13T02:09:40;28.63;;;9.53;;
20040;SDS011;10181;48.072;9.884;2023-07-13T02:12:07;21.00;;;8.17;;
20040;SDS011;10181;48.072;9.884;2023-07-13T02:14:33;26.00;;;9.23;;
20040;SDS011;10181;48.072;9.884;2023-07-13T02:16:59;22.40;;;6.80;;
20040;SDS011;10181;48.072;9.884;2023-07-13T02:19:24;16.77;;;7.40;;
20040;SDS011;10181;48.072;9.884;2023-07-13T02:21:50;27.47;;;11.10;;
20040;SDS011;10181;48.072;9.884;2023-07-13T02:24:16;18.63;;;7.43;;
20040;SDS011;10181;48.072;9.884;2023-07-13T02:26:44;28.73;;;12.00;;
20040;SDS011;10181;48.072;9.884;2023-07-13T02:29:10;9.97;;;7.30;;
20040;SDS011;10181;48.072;9.884;2023-07-13T02:31:36;29.27;;;10.43;;
20040;SDS011;10181;48.072;9.884;2023-07-13T02:34:02;35.13;;;10.03;;
20040;SDS011;10181;48.072;9.884;2023-07-13T02:36:29;16.17;;;9.20;;
20040;SDS011;10181;48.072;9.884;2023-07-13T02:38:55;27.33;;;10.70;;
20040;SDS011;10181;48.072;9.884;2023-07-13T02:41:21;15.17;;;10.73;;
20040;SDS011;10181;48.072;9.884;2023-07-13T02:43:48;13.93;;;7.60;;
20040;SDS011;10181;48.072;9.884;2023-07-13T02:46:13;21.83;;;9.53;;
20040;SDS011;10181;48.072;9.884;2023-07-13T02:48:39;11.30;;;8.10;;
20040;SDS011;10181;48.072;9.884;2023-07-13T02:51:05;26.83;;;9.80;;
20040;SDS011;10181;48.072;9.884;2023-07-13T02:53:32;17.53;;;7.63;;
20040;SDS011;10181;48.072;9.884;2023-07-13T02:55:58;23.80;;;10.30;;
20040;SDS011;10181;48.072;9.884;2023-07-13T02:58:23;26.47;;;11.73;;
20040;SDS011;10181;48.072;9.884;2023-07-13T03:00:49;25.60;;;8.43;;
20040;SDS011;10181;48.072;9.884;2023-07-13T03:03:15;12.40;;;9.00;;
20040;SDS011;10181;48.072;9.884;2023-07-13T03:05:42;32.17;;;11.63;;
20040;SDS011;10181;48.072;9.884;2023-07-13T03:08:10;27.67;;;10.37;;
20040;SDS011;10181;48.072;9.884;2023-07-13T03:10:36;23.90;;;8.03;;
20040;SDS011;10181;48.072;9.884;2023-07-13T03:13:03;23.60;;;10.50;;
20040;SDS011;10181;48.072;9.884;2023-07-13T03:15:28;29.60;;;11.10;;
20040;SDS011;10181;48.072;9.884;2023-07-13T03:17:54;22.97;;;9.23;;
20040;SDS011;10181;48.072;9.884;2023-07-13T03:20:20;32.43;;;11.33;;
20040;SDS011;10181;48.072;9.884;2023-07-13T03:22:45;10.17;;;7.00;;
20040;SDS011;10181;48.072;9.884;2023-07-13T03:25:11;27.77;;;12.23;;
20040;SDS011;10181;48.072;9.884;2023-07-13T03:27:37;32.27;;;12.23;;
20040;SDS011;10181;48.072;9.884;2023-07-13T03:30:04;12.87;;;9.03;;
20040;SDS011;10181;48.072;9.884;2023-07-13T03:32:30;27.33;;;11.20;;
20040;SDS011;10181;48.072;9.884;2023-07-13T03:34:56;30.80;;;10.40;;
20040;SDS011;10181;48.072;9.884;2023-07-13T03:37:22;35.67;;;14.43;;
20040;SDS011;10181;48.072;9.884;2023-07-13T03:39:48;32.57;;;10.67;;
20040;SDS011;10181;48.072;9.884;2023-07-13T03:42:13;27.73;;;11.30;;
20040;SDS011;10181;48.072;9.884;2023-07-13T03:44:39;12.73;;;9.43;;
20040;SDS011;10181;48.072;9.884;2023-07-13T03:47:06;29.60;;;11.27;;
20040;SDS011;10181;48.072;9.884;2023-07-13T03:49:33;23.27;;;8.87;;
20040;SDS011;10181;48.072;9.884;2023-07-13T03:51:59;10.27;;;7.40;;
20040;SDS011;10181;48.072;9.884;2023-07-13T03:54:25;30.50;;;13.10;;
20040;SDS011;10181;48.072;9.884;2023-07-13T03:56:51;29.43;;;11.27;;
20040;SDS011;10181;48.072;9.884;2023-07-13T03:59:17;31.13;;;12.63;;
20040;SDS011;10181;48.072;9.884;2023-07-13T04:01:43;30.43;;;11.83;;
20040;SDS011;10181;48.072;9.884;2023-07-13T04:04:09;26.87;;;10.77;;
20040;SDS011;10181;48.072;9.884;2023-07-13T04:06:35;27.63;;;10.40;;
20040;SDS011;10181;48.072;9.884;2023-07-13T04:09:01;14.23;;;8.90;;
20040;SDS011;10181;48.072;9.884;2023-07-13T04:11:30;26.77;;;9.40;;
20040;SDS011;10181;48.072;9.884;2023-07-13T04:13:57;15.90;;;8.70;;
20040;SDS011;10181;48.072;9.884;2023-07-13T04:16:24;19.17;;;8.77;;
20040;SDS011;10181;48.072;9.884;2023-07-13T04:18:50;14.03;;;8.43;;
20040;SDS011;10181;48.072;9.884;2023-07-13T04:21:19;10.07;;;7.67;;
20040;SDS011;10181;48.072;9.884;2023-07-13T04:23:45;29.03;;;10.47;;
20040;SDS011;10181;48.072;9.884;2023-07-13T04:26:11;10.30;;;7.77;;
20040;SDS011;10181;48.072;9.884;2023-07-13T04:28:37;28.03;;;8.97;;
20040;SDS011;10181;48.072;9.884;2023-07-13T04:31:02;28.60;;;10.50;;
20040;SDS011;10181;48.072;9.884;2023-07-13T04:33:28;25.93;;;8.60;;
20040;SDS011;10181;48.072;9.884;2023-07-13T04:35:54;26.90;;;10.47;;
20040;SDS011;10181;48.072;9.884;2023-07-13T04:38:24;27.00;;;8.77;;
20040;SDS011;10181;48.072;9.884;2023-07-13T04:40:58;34.53;;;11.00;;
20040;SDS011;10181;48.072;9.884;2023-07-13T04:43:25;28.53;;;9.20;;
20040;SDS011;10181;48.072;9.884;2023-07-13T04:45:51;23.93;;;9.63;;
20040;SDS011;10181;48.072;9.884;2023-07-13T04:48:18;30.03;;;10.33;;
20040;SDS011;10181;48.072;9.884;2023-07-13T04:50:45;29.67;;;11.23;;
20040;SDS011;10181;48.072;9.884;2023-07-13T04:53:11;27.07;;;10.10;;
20040;SDS011;10181;48.072;9.884;2023-07-13T04:55:37;34.27;;;10.53;;
20040;SDS011;10181;48.072;9.884;2023-07-13T04:58:03;30.57;;;10.63;;
20040;SDS011;10181;48.072;9.884;2023-07-13T05:00:29;23.63;;;7.57;;
20040;SDS011;10181;48.072;9.884;2023-07-13T05:02:56;29.87;;;9.87;;
20040;SDS011;10181;48.072;9.884;2023-07-13T05:05:22;26.87;;;10.20;;
20040;SDS011;10181;48.072;9.884;2023-07-13T05:07:48;14.77;;;7.17;;
20040;SDS011;10181;48.072;9.884;2023-07-13T05:10:14;27.43;;;11.20;;
20040;SDS011;10181;48.072;9.884;2023-07-13T05:12:40;8.70;;;7.50;;
20040;SDS011;10181;48.072;9.884;2023-07-13T05:15:06;30.37;;;9.60;;
20040;SDS011;10181;48.072;9.884;2023-07-13T05:17:32;32.63;;;9.97;;
20040;SDS011;10181;48.072;9.884;2023-07-13T05:19:58;28.80;;;11.10;;
20040;SDS011;10181;48.072;9.884;2023-07-13T05:22:23;27.70;;;9.73;;
20040;SDS011;10181;48.072;9.884;2023-07-13T05:24:49;29.40;;;10.97;;
20040;SDS011;10181;48.072;9.884;2023-07-13T05:27:15;30.80;;;11.13;;
20040;SDS011;10181;48.072;9.884;2023-07-13T05:29:40;26.27;;;9.47;;
20040;SDS011;10181;48.072;9.884;2023-07-13T05:32:06;30.30;;;8.90;;
20040;SDS011;10181;48.072;9.884;2023-07-13T05:34:32;27.57;;;10.93;;
20040;SDS011;10181;48.072;9.884;2023-07-13T05:36:57;27.57;;;9.27;;
20040;SDS011;10181;48.072;9.884;2023-07-13T05:39:23;29.97;;;12.13;;
20040;SDS011;10181;48.072;9.884;2023-07-13T05:41:49;28.33;;;10.90;;
20040;SDS011;10181;48.072;9.884;2023-07-13T05:44:15;26.03;;;10.00;;
20040;SDS011;10181;48.072;9.884;2023-07-13T05:46:40;27.97;;;9.23;;
20040;SDS011;10181;48.072;9.884;2023-07-13T05:49:06;25.97;;;9.13;;
20040;SDS011;10181;48.072;9.884;2023-07-13T05:51:32;27.47;;;7.93;;
20040;SDS011;10181;48.072;9.884;2023-07-13T05:53:57;25.87;;;7.87;;
20040;SDS011;10181;48.072;9.884;2023-07-13T05:56:23;26.63;;;9.43;;
20040;SDS011;10181;48.072;9.884;2023-07-13T05:58:50;27.43;;;7.57;;
20040;SDS011;10181;48.072;9.884;2023-07-13T06:01:15;24.17;;;7.43;;
20040;SDS011;10181;48.072;9.884;2023-07-13T06:03:42;26.63;;;9.43;;
20040;SDS011;10181;48.072;9.884;2023-07-13T06:06:08;24.73;;;7.97;;
20040;SDS011;10181;48.072;9.884;2023-07-13T06:08:35;7.87;;;7.03;;
20040;SDS011;10181;48.072;9.884;2023-07-13T06:11:02;20.93;;;8.33;;
20040;SDS011;10181;48.072;9.884;2023-07-13T06:13:33;21.77;;;6.87;;
20040;SDS011;10181;48.072;9.884;2023-07-13T06:15:59;25.47;;;8.93;;
20040;SDS011;10181;48.072;9.884;2023-07-13T06:18:25;5.20;;;4.33;;
20040;SDS011;10181;48.072;9.884;2023-07-13T06:20:51;6.80;;;6.23;;
20040;SDS011;10181;48.072;9.884;2023-07-13T06:23:16;5.40;;;4.17;;
20040;SDS011;10181;48.072;9.884;2023-07-13T06:25:42;23.57;;;9.10;;
20040;SDS011;10181;48.072;9.884;2023-07-13T06:28:08;25.17;;;8.73;;
20040;SDS011;10181;48.072;9.884;2023-07-13T06:30:34;4.73;;;4.13;;
20040;SDS011;10181;48.072;9.884;2023-07-13T06:32:59;22.60;;;5.63;;
20040;SDS011;10181;48.072;9.884;2023-07-13T06:35:25;23.93;;;6.50;;
20040;SDS011;10181;48.072;9.884;2023-07-13T06:37:51;5.10;;;3.23;;
20040;SDS011;10181;48.072;9.884;2023-07-13T06:40:16;23.37;;;9.63;;
20040;SDS011;10181;48.072;9.884;2023-07-13T06:42:42;24.10;;;8.70;;
20040;SDS011;10181;48.072;9.884;2023-07-13T06:45:08;22.37;;;8.10;;
20040;SDS011;10181;48.072;9.884;2023-07-13T06:47:33;11.07;;;7.23;;
20040;SDS011;10181;48.072;9.884;2023-07-13T06:49:59;22.97;;;3.97;;
20040;SDS011;10181;48.072;9.884;2023-07-13T06:52:25;23.02;;;8.80;;
20040;SDS011;10181;48.072;9.884;2023-07-13T06:54:51;19.60;;;7.73;;
20040;SDS011;10181;48.072;9.884;2023-07-13T06:57:16;23.03;;;6.80;;
20040;SDS011;10181;48.072;9.884;2023-07-13T06:59:42;18.27;;;5.27;;
20040;SDS011;10181;48.072;9.884;2023-07-13T07:02:09;22.03;;;5.43;;
20040;SDS011;10181;48.072;9.884;2023-07-13T07:04:35;8.83;;;3.50;;
20040;SDS011;10181;48.072;9.884;2023-07-13T07:07:01;19.02;;;5.85;;
20040;SDS011;10181;48.072;9.884;2023-07-13T07:09:27;23.20;;;8.10;;
20040;SDS011;10181;48.072;9.884;2023-07-13T07:11:54;22.53;;;5.20;;
20040;SDS011;10181;48.072;9.884;2023-07-13T07:14:20;23.27;;;7.40;;
20040;SDS011;10181;48.072;9.884;2023-07-13T07:16:45;24.77;;;9.87;;
20040;SDS011;10181;48.072;9.884;2023-07-13T07:19:11;8.63;;;5.00;;
20040;SDS011;10181;48.072;9.884;2023-07-13T07:21:36;8.53;;;4.53;;
20040;SDS011;10181;48.072;9.884;2023-07-13T07:24:02;24.57;;;6.90;;
20040;SDS011;10181;48.072;9.884;2023-07-13T07:26:29;27.10;;;7.63;;
20040;SDS011;10181;48.072;9.884;2023-07-13T07:28:55;23.60;;;7.72;;
20040;SDS011;10181;48.072;9.884;2023-07-13T07:31:21;8.18;;;4.47;;
20040;SDS011;10181;48.072;9.884;2023-07-13T07:33:46;19.95;;;7.70;;
20040;SDS011;10181;48.072;9.884;2023-07-13T07:36:12;21.70;;;7.43;;
20040;SDS011;10181;48.072;9.884;2023-07-13T07:38:37;21.48;;;7.28;;
20040;SDS011;10181;48.072;9.884;2023-07-13T07:41:03;25.83;;;7.55;;
20040;SDS011;10181;48.072;9.884;2023-07-13T07:43:29;22.35;;;8.07;;
20040;SDS011;10181;48.072;9.884;2023-07-13T07:45:56;7.70;;;3.17;;
20040;SDS011;10181;48.072;9.884;2023-07-13T07:48:21;20.88;;;8.05;;
20040;SDS011;10181;48.072;9.884;2023-07-13T07:50:47;22.58;;;5.68;;
20040;SDS011;10181;48.072;9.884;2023-07-13T07:53:13;19.13;;;5.13;;
20040;SDS011;10181;48.072;9.884;2023-07-13T07:55:38;20.70;;;4.63;;
20040;SDS011;10181;48.072;9.884;2023-07-13T07:58:04;15.48;;;4.90;;
20040;SDS011;10181;48.072;9.884;2023-07-13T08:00:31;21.93;;;8.33;;
20040;SDS011;10181;48.072;9.884;2023-07-13T08:02:57;18.55;;;4.85;;
20040;SDS011;10181;48.072;9.884;2023-07-13T08:05:23;25.00;;;4.50;;
20040;SDS011;10181;48.072;9.884;2023-07-13T08:07:49;24.92;;;8.85;;
20040;SDS011;10181;48.072;9.884;2023-07-13T08:10:15;21.75;;;6.18;;
20040;SDS011;10181;48.072;9.884;2023-07-13T08:12:41;20.33;;;5.43;;
20040;SDS011;10181;48.072;9.884;2023-07-13T08:15:08;9.80;;;4.30;;
20040;SDS011;10181;48.072;9.884;2023-07-13T08:17:36;23.48;;;5.22;;
20040;SDS011;10181;48.072;9.884;2023-07-13T08:20:02;19.80;;;8.70;;
20040;SDS011;10181;48.072;9.884;2023-07-13T08:22:29;24.13;;;8.52;;
20040;SDS011;10181;48.072;9.884;2023-07-13T08:24:54;6.82;;;3.75;;
20040;SDS011;10181;48.072;9.884;2023-07-13T08:27:21;16.02;;;5.35;;
20040;SDS011;10181;48.072;9.884;2023-07-13T08:29:48;18.58;;;5.03;;
20040;SDS011;10181;48.072;9.884;2023-07-13T08:32:14;23.08;;;5.82;;
20040;SDS011;10181;48.072;9.884;2023-07-13T08:34:40;15.52;;;6.47;;
20040;SDS011;10181;48.072;9.884;2023-07-13T08:37:05;21.15;;;5.50;;
20040;SDS011;10181;48.072;9.884;2023-07-13T08:39:32;25.65;;;5.00;;
20040;SDS011;10181;48.072;9.884;2023-07-13T08:42:11;14.55;;;4.03;;
20040;SDS011;10181;48.072;9.884;2023-07-13T08:47:51;19.17;;;6.00;;
20040;SDS011;10181;48.072;9.884;2023-07-13T08:50:21;21.48;;;5.75;;
20040;SDS011;10181;48.072;9.884;2023-07-13T08:52:52;14.02;;;4.82;;
20040;SDS011;10181;48.072;9.884;2023-07-13T08:55:24;22.98;;;5.22;;
20040;SDS011;10181;48.072;9.884;2023-07-13T08:58:05;23.70;;;4.63;;
20040;SDS011;10181;48.072;9.884;2023-07-13T09:01:42;22.73;;;4.93;;
20040;SDS011;10181;48.072;9.884;2023-07-13T09:06:21;22.00;;;7.45;;
20040;SDS011;10181;48.072;9.884;2023-07-13T09:08:58;13.43;;;4.32;;
20040;SDS011;10181;48.072;9.884;2023-07-13T09:11:45;23.40;;;5.43;;
20040;SDS011;10181;48.072;9.884;2023-07-13T09:14:38;23.20;;;4.63;;
20040;SDS011;10181;48.072;9.884;2023-07-13T09:17:27;29.10;;;6.60;;
20040;SDS011;10181;48.072;9.884;2023-07-13T09:20:01;5.45;;;2.78;;
20040;SDS011;10181;48.072;9.884;2023-07-13T09:22:32;18.58;;;6.75;;
20040;SDS011;10181;48.072;9.884;2023-07-13T09:27:56;20.15;;;5.93;;
20040;SDS011;10181;48.072;9.884;2023-07-13T09:33:09;18.83;;;8.07;;
20040;SDS011;10181;48.072;9.884;2023-07-13T09:35:35;5.47;;;3.95;;
20040;SDS011;10181;48.072;9.884;2023-07-13T09:38:10;24.40;;;4.55;;
20040;SDS011;10181;48.072;9.884;2023-07-13T09:40:40;23.40;;;5.45;;
20040;SDS011;10181;48.072;9.884;2023-07-13T09:46:39;20.95;;;5.40;;
20040;SDS011;10181;48.072;9.884;2023-07-13T09:49:11;9.13;;;4.57;;
20040;SDS011;10181;48.072;9.884;2023-07-13T09:51:43;11.13;;;4.25;;
20040;SDS011;10181;48.072;9.884;2023-07-13T09:54:19;19.98;;;5.25;;
20040;SDS011;10181;48.072;9.884;2023-07-13T09:56:45;9.02;;;3.85;;
20040;SDS011;10181;48.072;9.884;2023-07-13T09:59:21;15.07;;;5.47;;
20040;SDS011;10181;48.072;9.884;2023-07-13T10:01:49;25.60;;;6.68;;
20040;SDS011;10181;48.072;9.884;2023-07-13T10:04:17;8.90;;;4.07;;
20040;SDS011;10181;48.072;9.884;2023-07-13T10:06:44;25.05;;;5.20;;
20040;SDS011;10181;48.072;9.884;2023-07-13T10:09:14;16.65;;;5.47;;
20040;SDS011;10181;48.072;9.884;2023-07-13T10:11:43;23.60;;;4.25;;
20040;SDS011;10181;48.072;9.884;2023-07-13T10:16:35;16.00;;;5.85;;
20040;SDS011;10181;48.072;9.884;2023-07-13T10:19:02;22.85;;;4.82;;
20040;SDS011;10181;48.072;9.884;2023-07-13T10:24:25;18.52;;;6.60;;
20040;SDS011;10181;48.072;9.884;2023-07-13T10:29:43;19.98;;;5.43;;
20040;SDS011;10181;48.072;9.884;2023-07-13T10:32:09;13.00;;;4.93;;
20040;SDS011;10181;48.072;9.884;2023-07-13T10:34:43;23.55;;;5.43;;
20040;SDS011;10181;48.072;9.884;2023-07-13T10:37:15;11.32;;;4.60;;
20040;SDS011;10181;48.072;9.884;2023-07-13T10:39:49;11.52;;;4.43;;
20040;SDS011;10181;48.072;9.884;2023-07-13T10:42:21;21.33;;;5.20;;
20040;SDS011;10181;48.072;9.884;2023-07-13T10:45:11;18.35;;;4.93;;
20040;SDS011;10181;48.072;9.884;2023-07-13T10:47:48;12.50;;;5.75;;
20040;SDS011;10181;48.072;9.884;2023-07-13T10:50:20;15.73;;;7.75;;
20040;SDS011;10181;48.072;9.884;2023-07-13T10:52:52;10.60;;;4.53;;
20040;SDS011;10181;48.072;9.884;2023-07-13T10:55:40;9.77;;;4.78;;
20040;SDS011;10181;48.072;9.884;2023-07-13T10:58:21;12.93;;;4.70;;
20040;SDS011;10181;48.072;9.884;2023-07-13T11:03:27;21.83;;;4.70;;
20040;SDS011;10181;48.072;9.884;2023-07-13T11:06:15;8.75;;;4.18;;
20040;SDS011;10181;48.072;9.884;2023-07-13T11:13:59;23.13;;;5.53;;
20040;SDS011;10181;48.072;9.884;2023-07-13T11:16:43;10.73;;;5.10;;
20040;SDS011;10181;48.072;9.884;2023-07-13T11:24:50;14.25;;;4.45;;
20040;SDS011;10181;48.072;9.884;2023-07-13T11:27:37;23.05;;;5.60;;
20040;SDS011;10181;48.072;9.884;2023-07-13T11:30:24;5.13;;;3.45;;
20040;SDS011;10181;48.072;9.884;2023-07-13T11:38:21;18.30;;;6.72;;
20040;SDS011;10181;48.072;9.884;2023-07-13T11:40:58;15.15;;;6.38;;
20040;SDS011;10181;48.072;9.884;2023-07-13T11:43:28;10.73;;;6.88;;
20040;SDS011;10181;48.072;9.884;2023-07-13T11:45:54;12.38;;;4.72;;
20040;SDS011;10181;48.072;9.884;2023-07-13T11:48:24;8.95;;;3.25;;
20040;SDS011;10181;48.072;9.884;2023-07-13T11:50:56;17.50;;;4.50;;
20040;SDS011;10181;48.072;9.884;2023-07-13T11:53:44;18.83;;;6.75;;
20040;SDS011;10181;48.072;9.884;2023-07-13T11:56:11;10.13;;;4.60;;
20040;SDS011;10181;48.072;9.884;2023-07-13T11:58:38;6.28;;;3.65;;
20040;SDS011;10181;48.072;9.884;2023-07-13T12:01:04;17.95;;;6.55;;
20040;SDS011;10181;48.072;9.884;2023-07-13T12:03:30;17.67;;;4.55;;
20040;SDS011;10181;48.072;9.884;2023-07-13T12:06:05;19.80;;;4.70;;
20040;SDS011;10181;48.072;9.884;2023-07-13T12:08:45;10.45;;;5.43;;
20040;SDS011;10181;48.072;9.884;2023-07-13T12:11:17;20.25;;;4.93;;
20040;SDS011;10181;48.072;9.884;2023-07-13T12:13:44;16.85;;;4.00;;
20040;SDS011;10181;48.072;9.884;2023-07-13T12:16:17;10.88;;;8.73;;
20040;SDS011;10181;48.072;9.884;2023-07-13T12:18:57;14.13;;;5.20;;
20040;SDS011;10181;48.072;9.884;2023-07-13T12:21:32;9.15;;;4.28;;
20040;SDS011;10181;48.072;9.884;2023-07-13T12:23:59;4.47;;;4.18;;
20040;SDS011;10181;48.072;9.884;2023-07-13T12:26:29;10.65;;;5.57;;
20040;SDS011;10181;48.072;9.884;2023-07-13T12:28:56;14.63;;;6.45;;
20040;SDS011;10181;48.072;9.884;2023-07-13T12:31:29;8.55;;;5.00;;
20040;SDS011;10181;48.072;9.884;2023-07-13T12:33:58;12.57;;;5.03;;
20040;SDS011;10181;48.072;9.884;2023-07-13T12:36:38;13.48;;;6.03;;
20040;SDS011;10181;48.072;9.884;2023-07-13T12:39:17;19.25;;;5.57;;
20040;SDS011;10181;48.072;9.884;2023-07-13T12:41:44;6.07;;;4.18;;
20040;SDS011;10181;48.072;9.884;2023-07-13T12:44:14;10.65;;;4.63;;
20040;SDS011;10181;48.072;9.884;2023-07-13T12:49:39;21.08;;;4.40;;
20040;SDS011;10181;48.072;9.884;2023-07-13T12:52:13;12.63;;;7.63;;
20040;SDS011;10181;48.072;9.884;2023-07-13T12:54:41;21.10;;;7.18;;
20040;SDS011;10181;48.072;9.884;2023-07-13T12:57:08;13.95;;;6.47;;
20040;SDS011;10181;48.072;9.884;2023-07-13T12:59:41;2.35;;;2.05;;
20040;SDS011;10181;48.072;9.884;2023-07-13T13:02:29;15.60;;;6.57;;
20040;SDS011;10181;48.072;9.884;2023-07-13T13:04:56;3.75;;;2.63;;
20040;SDS011;10181;48.072;9.884;2023-07-13T13:07:23;18.23;;;5.00;;
20040;SDS011;10181;48.072;9.884;2023-07-13T13:09:49;19.42;;;6.28;;
20040;SDS011;10181;48.072;9.884;2023-07-13T13:12:15;17.45;;;7.05;;
20040;SDS011;10181;48.072;9.884;2023-07-13T13:14:42;15.30;;;4.68;;
20040;SDS011;10181;48.072;9.884;2023-07-13T13:17:15;7.15;;;5.13;;
20040;SDS011;10181;48.072;9.884;2023-07-13T13:19:44;24.52;;;4.47;;
20040;SDS011;10181;48.072;9.884;2023-07-13T13:22:10;18.08;;;5.22;;
20040;SDS011;10181;48.072;9.884;2023-07-13T13:24:36;16.50;;;4.53;;
20040;SDS011;10181;48.072;9.884;2023-07-13T13:27:02;6.97;;;3.65;;
20040;SDS011;10181;48.072;9.884;2023-07-13T13:29:27;19.40;;;6.15;;
20040;SDS011;10181;48.072;9.884;2023-07-13T13:31:53;13.18;;;4.35;;
20040;SDS011;10181;48.072;9.884;2023-07-13T13:34:20;5.65;;;3.45;;
20040;SDS011;10181;48.072;9.884;2023-07-13T13:36:49;1.70;;;1.60;;
20040;SDS011;10181;48.072;9.884;2023-07-13T13:39:21;2.03;;;1.92;;
20040;SDS011;10181;48.072;9.884;2023-07-13T13:41:49;22.33;;;5.50;;
20040;SDS011;10181;48.072;9.884;2023-07-13T13:44:16;9.38;;;3.28;;
20040;SDS011;10181;48.072;9.884;2023-07-13T13:46:44;16.92;;;5.03;;
20040;SDS011;10181;48.072;9.884;2023-07-13T13:49:16;13.98;;;6.25;;
20040;SDS011;10181;48.072;9.884;2023-07-13T13:51:44;21.45;;;5.60;;
20040;SDS011;10181;48.072;9.884;2023-07-13T13:54:12;12.43;;;5.97;;
20040;SDS011;10181;48.072;9.884;2023-07-13T13:56:39;20.88;;;5.07;;
20040;SDS011;10181;48.072;9.884;2023-07-13T13:59:06;17.75;;;5.22;;
20040;SDS011;10181;48.072;9.884;2023-07-13T14:01:33;11.02;;;4.72;;
20040;SDS011;10181;48.072;9.884;2023-07-13T14:04:00;17.83;;;9.00;;
20040;SDS011;10181;48.072;9.884;2023-07-13T14:06:25;8.52;;;3.45;;
20040;SDS011;10181;48.072;9.884;2023-07-13T14:08:52;12.40;;;3.85;;
20040;SDS011;10181;48.072;9.884;2023-07-13T14:11:20;7.30;;;3.72;;
20040;SDS011;10181;48.072;9.884;2023-07-13T14:13:51;16.75;;;3.92;;
20040;SDS011;10181;48.072;9.884;2023-07-13T14:16:20;9.23;;;3.50;;
20040;SDS011;10181;48.072;9.884;2023-07-13T14:18:52;25.45;;;5.13;;
20040;SDS011;10181;48.072;9.884;2023-07-13T14:21:19;8.88;;;5.60;;
20040;SDS011;10181;48.072;9.884;2023-07-13T14:23:46;17.77;;;5.38;;
20040;SDS011;10181;48.072;9.884;2023-07-13T14:26:35;25.67;;;5.70;;
20040;SDS011;10181;48.072;9.884;2023-07-13T14:29:01;15.57;;;7.40;;
20040;SDS011;10181;48.072;9.884;2023-07-13T14:31:29;9.15;;;3.15;;
20040;SDS011;10181;48.072;9.884;2023-07-13T14:33:55;5.50;;;3.67;;
20040;SDS011;10181;48.072;9.884;2023-07-13T14:36:21;2.05;;;1.85;;
20040;SDS011;10181;48.072;9.884;2023-07-13T14:38:51;18.83;;;6.43;;
20040;SDS011;10181;48.072;9.884;2023-07-13T14:41:18;10.10;;;3.58;;
20040;SDS011;10181;48.072;9.884;2023-07-13T14:43:44;21.15;;;5.20;;
20040;SDS011;10181;48.072;9.884;2023-07-13T14:46:18;9.77;;;3.95;;
20040;SDS011;10181;48.072;9.884;2023-07-13T14:49:06;10.25;;;3.63;;
20040;SDS011;10181;48.072;9.884;2023-07-13T14:51:50;20.23;;;6.18;;
20040;SDS011;10181;48.072;9.884;2023-07-13T14:54:16;13.30;;;4.50;;
20040;SDS011;10181;48.072;9.884;2023-07-13T14:56:42;5.88;;;4.15;;
20040;SDS011;10181;48.072;9.884;2023-07-13T14:59:07;11.45;;;4.30;;
20040;SDS011;10181;48.072;9.884;2023-07-13T15:01:36;8.45;;;3.53;;
20040;SDS011;10181;48.072;9.884;2023-07-13T15:04:03;14.65;;;6.45;;
20040;SDS011;10181;48.072;9.884;2023-07-13T15:06:29;16.63;;;4.70;;
20040;SDS011;10181;48.072;9.884;2023-07-13T15:08:56;20.77;;;4.35;;
20040;SDS011;10181;48.072;9.884;2023-07-13T15:11:22;23.35;;;4.80;;
20040;SDS011;10181;48.072;9.884;2023-07-13T15:13:48;9.18;;;3.88;;
20040;SDS011;10181;48.072;9.884;2023-07-13T15:16:21;14.23;;;3.63;;
20040;SDS011;10181;48.072;9.884;2023-07-13T15:18:49;19.75;;;5.05;;
20040;SDS011;10181;48.072;9.884;2023-07-13T15:21:18;14.50;;;6.10;;
20040;SDS011;10181;48.072;9.884;2023-07-13T15:23:48;20.73;;;5.43;;
20040;SDS011;10181;48.072;9.884;2023-07-13T15:26:15;18.85;;;4.65;;
20040;SDS011;10181;48.072;9.884;2023-07-13T15:28:42;23.35;;;7.05;;
20040;SDS011;10181;48.072;9.884;2023-07-13T15:31:17;2.20;;;2.10;;